Time;durP1;ratioP1;P1;durP2;ratioP2;P2;SDS_P1;SDS_P2;PMS_P1;PMS_P2;Temp;Humidity;BMP_temperature;BMP_pressure;BME280_temperature;BME280_humidity;BME280_pressure;Samples;Min_cycle;Max_cycle;Signal;HPM_P1;HPM_P2
2022/06/09 00:01:53;;;;;;;5.60;2.87;;;;;;;19.12;65.96;99134.39;1762897;80;21044;-67
2022/06/09 00:04:24;;;;;;;3.35;2.47;;;;;;;19.12;66.43;99134.39;1763395;81;21858;-67
2022/06/09 00:07:09;;;;;;;4.80;2.50;;;;;;;19.09;66.21;99131.73;1762965;81;21095;-67
2022/06/09 00:09:47;;;;;;;3.58;2.20;;;;;;;19.08;66.21;99126.77;1755792;81;21074;-68
2022/06/09 00:12:14;;;;;;;7.03;2.75;;;;;;;19.07;66.29;99128.55;1763237;80;21052;-67
2022/06/09 00:14:42;;;;;;;2.50;2.30;;;;;;;19.07;65.86;99129.95;1764015;81;20994;-68
2022/06/09 00:17:09;;;;;;;4.78;2.30;;;;;;;19.05;66.34;99122.55;1754375;80;21683;-68
2022/06/09 00:19:36;;;;;;;4.85;2.83;;;;;;;19.04;66.74;99125.15;1755237;81;21482;-67
2022/06/09 00:22:03;;;;;;;5.20;3.17;;;;;;;19.04;66.56;99126.55;1753091;81;21176;-67
2022/06/09 00:24:31;;;;;;;6.28;2.22;;;;;;;19.02;66.11;99127.52;1753677;80;20973;-67
2022/06/09 00:26:59;;;;;;;4.95;2.65;;;;;;;19.00;65.97;99121.52;1748780;81;21119;-67
2022/06/09 00:29:29;;;;;;;3.00;2.35;;;;;;;18.95;65.67;99125.48;1751152;81;21048;-67
2022/06/09 00:31:57;;;;;;;4.12;2.47;;;;;;;18.92;66.26;99122.85;1755014;81;21029;-67
2022/06/09 00:34:24;;;;;;;3.80;2.50;;;;;;;18.90;66.25;99120.25;1753581;81;21008;-67
2022/06/09 00:36:51;;;;;;;3.65;2.70;;;;;;;18.88;66.37;99119.83;1753177;81;20961;-67
2022/06/09 00:39:18;;;;;;;3.77;2.62;;;;;;;18.88;66.63;99123.44;1750995;81;21017;-67
2022/06/09 00:41:48;;;;;;;5.60;3.15;;;;;;;18.86;66.17;99124.41;1753725;81;21028;-68
2022/06/09 00:44:21;;;;;;;4.15;2.50;;;;;;;18.85;66.18;99121.42;1754469;81;20990;-67
2022/06/09 00:47:06;;;;;;;5.58;2.47;;;;;;;18.83;66.44;99122.39;1754460;81;21067;-68
2022/06/09 00:49:42;;;;;;;3.47;2.50;;;;;;;18.81;66.88;99113.02;1746915;81;21520;-67
2022/06/09 00:52:09;;;;;;;5.55;2.60;;;;;;;18.80;66.85;99116.20;1747941;81;21532;-67
2022/06/09 00:54:42;;;;;;;3.70;2.58;;;;;;;18.79;67.12;99109.00;1754967;81;21811;-67
2022/06/09 00:57:13;;;;;;;4.78;2.47;;;;;;;18.77;66.82;99114.97;1753110;81;21068;-67
2022/06/09 00:59:46;;;;;;;8.13;2.75;;;;;;;18.75;66.64;99113.15;1749246;81;21553;-68
2022/06/09 01:02:17;;;;;;;6.58;2.98;;;;;;;18.76;66.58;99113.95;1753117;81;20977;-67
2022/06/09 01:04:46;;;;;;;7.12;2.67;;;;;;;18.76;66.49;99116.16;1751676;81;21083;-67
2022/06/09 01:07:20;;;;;;;13.18;2.87;;;;;;;18.76;66.30;99116.16;1752045;80;21080;-67
2022/06/09 01:09:47;;;;;;;5.40;2.75;;;;;;;18.75;66.15;99120.73;1752048;81;21454;-66
2022/06/09 01:12:35;;;;;;;4.70;2.55;;;;;;;18.72;65.84;99117.52;1752710;81;21016;-67
2022/06/09 01:15:10;;;;;;;5.22;2.40;;;;;;;18.71;65.49;99127.67;1749231;81;21080;-67
2022/06/09 01:18:22;;;;;;;4.47;2.55;;;;;;;18.68;65.41;99129.23;1760917;80;21004;-67
2022/06/09 01:21:32;;;;;;;7.42;2.95;;;;;;;18.64;65.32;99125.63;1759084;81;22111;-67
2022/06/09 01:24:26;;;;;;;4.83;2.87;;;;;;;18.57;65.56;99118.58;1762618;81;21036;-66
2022/06/09 01:27:25;;;;;;;3.85;2.60;;;;;;;18.52;66.13;99130.09;1760758;81;20981;-66
2022/06/09 01:30:03;;;;;;;7.10;2.62;;;;;;;18.46;66.54;99126.84;1763979;81;21027;-67
2022/06/09 01:32:38;;;;;;;3.98;2.22;;;;;;;18.42;67.13;99125.43;1737072;81;21040;-68
2022/06/09 01:35:26;;;;;;;3.60;2.47;;;;;;;18.40;66.80;99120.83;1761979;80;21081;-67
2022/06/09 01:37:56;;;;;;;5.62;2.33;;;;;;;18.39;66.64;99118.42;1762979;81;20993;-67
2022/06/09 01:40:23;;;;;;;5.50;2.95;;;;;;;18.39;66.36;99123.38;1763007;81;21012;-67
2022/06/09 01:42:52;;;;;;;6.17;2.70;;;;;;;18.40;66.00;99122.22;1763461;81;21083;-67
2022/06/09 01:45:29;;;;;;;4.33;2.50;;;;;;;18.41;65.65;99127.22;1760620;81;21579;-67
2022/06/09 01:48:01;;;;;;;5.15;3.08;;;;;;;18.41;65.45;99124.42;1763377;79;21892;-68
2022/06/09 01:50:38;;;;;;;4.35;2.98;;;;;;;18.39;65.76;99124.00;1760861;81;20990;-68
2022/06/09 01:53:11;;;;;;;7.58;2.75;;;;;;;18.35;66.07;99126.75;1763076;81;21087;-68
2022/06/09 01:55:42;;;;;;;5.78;2.77;;;;;;;18.34;66.37;99127.91;1755457;81;21043;-69
2022/06/09 01:58:09;;;;;;;6.85;3.10;;;;;;;18.33;66.65;99123.53;1763694;81;21532;-68
2022/06/09 02:00:35;;;;;;;3.50;2.60;;;;;;;18.33;66.72;99126.32;1763199;81;21750;-67
2022/06/09 02:03:11;;;;;;;5.55;3.05;;;;;;;18.32;66.72;99125.52;1735777;81;21525;-67
2022/06/09 02:05:42;;;;;;;4.00;2.98;;;;;;;18.31;66.72;99127.29;1762767;81;21040;-68
2022/06/09 02:08:14;;;;;;;4.22;2.83;;;;;;;18.29;67.46;99126.28;1760533;81;21504;-67
2022/06/09 02:10:46;;;;;;;7.17;3.33;;;;;;;18.30;67.42;99130.69;1763228;81;21008;-67
2022/06/09 02:13:18;;;;;;;4.15;2.77;;;;;;;18.30;67.79;99131.27;1763614;81;21857;-67
2022/06/09 02:15:48;;;;;;;4.60;2.95;;;;;;;18.32;68.30;99134.48;1757547;81;21079;-67
2022/06/09 02:18:22;;;;;;;5.90;3.47;;;;;;;18.33;68.29;99135.50;1762803;80;21000;-67
2022/06/09 02:20:56;;;;;;;6.25;3.35;;;;;;;18.35;68.92;99135.11;1761023;81;21056;-67
2022/06/09 02:23:23;;;;;;;5.00;3.20;;;;;;;18.37;69.07;99134.14;1753098;81;21059;-67
2022/06/09 02:25:50;;;;;;;4.53;3.42;;;;;;;18.39;69.61;99137.94;1760691;81;21112;-67
2022/06/09 02:28:18;;;;;;;7.17;3.33;;;;;;;18.40;69.59;99131.17;1762673;81;21012;-66
2022/06/09 02:30:46;;;;;;;8.23;3.47;;;;;;;18.42;69.24;99137.98;1727248;81;21020;-66
2022/06/09 02:33:13;;;;;;;5.42;3.50;;;;;;;18.43;68.66;99142.36;1764030;81;21458;-65
2022/06/09 02:35:41;;;;;;;8.00;3.85;;;;;;;18.45;68.15;99148.95;1762516;81;21008;-65
2022/06/09 02:38:08;;;;;;;5.22;3.75;;;;;;;18.45;67.91;99159.52;1764375;81;21056;-66
2022/06/09 02:40:36;;;;;;;5.10;3.33;;;;;;;18.47;67.51;99161.92;1761567;81;21064;-66
2022/06/09 02:43:04;;;;;;;10.15;3.35;;;;;;;18.46;67.63;99164.48;1764494;81;21544;-66
2022/06/09 02:45:33;;;;;;;5.20;3.55;;;;;;;18.42;67.64;99156.69;1763621;79;20996;-67
2022/06/09 02:48:02;;;;;;;5.45;3.30;;;;;;;18.43;67.13;99159.68;1763140;81;21395;-67
2022/06/09 02:50:30;;;;;;;4.95;3.12;;;;;;;18.46;66.98;99155.53;1761164;81;21506;-68
2022/06/09 02:52:58;;;;;;;5.40;3.52;;;;;;;18.53;66.61;99151.20;1762326;81;20969;-66
2022/06/09 02:55:24;;;;;;;15.83;4.30;;;;;;;18.58;66.68;99155.04;1764426;80;21063;-66
2022/06/09 02:57:50;;;;;;;4.12;3.50;;;;;;;18.61;67.24;99155.08;1763809;81;21564;-66
2022/06/09 03:00:17;;;;;;;6.92;3.55;;;;;;;18.65;67.29;99156.52;1762296;81;20988;-66
2022/06/09 03:02:58;;;;;;;11.50;3.30;;;;;;;18.68;67.53;99157.75;1758163;80;21537;-66
2022/06/09 03:05:25;;;;;;;27.93;5.08;;;;;;;18.71;67.42;99157.75;1766127;80;20988;-68
2022/06/09 03:07:52;;;;;;;45.73;5.97;;;;;;;18.75;67.84;99163.37;1763919;81;21086;-67
2022/06/09 03:10:20;;;;;;;19.98;4.47;;;;;;;18.77;67.64;99161.59;1759729;80;21076;-66
2022/06/09 03:12:53;;;;;;;31.52;6.33;;;;;;;18.80;67.81;99163.63;1759380;81;21020;-67
2022/06/09 03:15:23;;;;;;;13.58;3.90;;;;;;;18.81;67.96;99161.04;1762927;81;21105;-69
2022/06/09 03:17:51;;;;;;;33.92;4.87;;;;;;;18.81;68.20;99159.64;1753207;81;21004;-67
2022/06/09 03:20:23;;;;;;;17.42;4.53;;;;;;;18.85;68.58;99168.86;1749844;81;21068;-67
2022/06/09 03:22:51;;;;;;;23.90;4.90;;;;;;;18.87;68.79;99160.10;1753475;81;21514;-67
2022/06/09 03:25:19;;;;;;;14.65;3.80;;;;;;;18.86;69.32;99167.66;1753617;80;21017;-67
2022/06/09 03:27:48;;;;;;;24.37;5.30;;;;;;;18.85;69.98;99162.67;1752996;81;21081;-66
2022/06/09 03:30:17;;;;;;;31.10;4.62;;;;;;;18.86;70.29;99163.48;1753819;80;21025;-67
2022/06/09 03:32:43;;;;;;;13.40;3.90;;;;;;;18.84;70.48;99163.05;1755442;81;21047;-66
2022/06/09 03:35:10;;;;;;;6.28;3.27;;;;;;;18.87;70.67;99162.28;1752850;81;21080;-67
2022/06/09 03:37:37;;;;;;;9.08;3.60;;;;;;;18.91;70.86;99170.10;1753148;81;20969;-67
2022/06/09 03:40:04;;;;;;;5.50;3.47;;;;;;;18.96;71.25;99166.95;1755365;81;21058;-67
2022/06/09 03:42:31;;;;;;;7.75;2.60;;;;;;;19.02;71.94;99165.20;1730495;81;20992;-67
2022/06/09 03:44:57;;;;;;;11.40;3.10;;;;;;;19.08;72.32;99163.65;1731718;81;21026;-68
2022/06/09 03:47:24;;;;;;;8.83;3.45;;;;;;;19.12;72.25;99164.52;1752510;81;21068;-67
2022/06/09 03:49:51;;;;;;;8.93;2.87;;;;;;;19.17;72.18;99164.74;1754534;81;21482;-67
2022/06/09 03:52:17;;;;;;;8.68;3.22;;;;;;;19.25;72.22;99166.98;1753932;81;21732;-66
2022/06/09 03:54:45;;;;;;;7.20;3.30;;;;;;;19.30;72.54;99159.64;1753578;81;21036;-66
2022/06/09 03:57:12;;;;;;;4.25;3.02;;;;;;;19.34;71.97;99161.88;1754722;81;21048;-66
2022/06/09 03:59:38;;;;;;;5.08;3.45;;;;;;;19.38;71.46;99159.11;1753465;81;20973;-65
2022/06/09 04:02:05;;;;;;;5.92;3.05;;;;;;;19.43;70.98;99159.52;1754833;81;21118;-66
2022/06/09 04:04:32;;;;;;;4.12;2.92;;;;;;;19.49;71.12;99157.76;1748967;81;21057;-66
2022/06/09 04:07:00;;;;;;;6.72;3.30;;;;;;;19.57;70.69;99149.63;1753683;81;21016;-67
2022/06/09 04:09:29;;;;;;;5.15;2.83;;;;;;;19.64;69.99;99158.05;1755078;81;21021;-66
2022/06/09 04:11:56;;;;;;;7.42;3.10;;;;;;;19.72;69.71;99144.12;1752921;81;21084;-66
2022/06/09 04:14:24;;;;;;;5.30;2.98;;;;;;;19.81;69.80;99144.55;1752779;81;21004;-67
2022/06/09 04:16:55;;;;;;;5.20;3.17;;;;;;;19.94;69.88;99144.40;1748988;81;21589;-67
2022/06/09 04:19:20;;;;;;;5.72;2.75;;;;;;;20.06;70.59;99141.09;1753254;80;21033;-67
2022/06/09 04:21:48;;;;;;;2.70;2.25;;;;;;;20.19;70.37;99143.73;1752675;81;20977;-66
2022/06/09 04:24:15;;;;;;;10.75;3.75;;;;;;;20.31;69.67;99138.95;1753349;81;21079;-66
2022/06/09 04:26:44;;;;;;;7.58;3.00;;;;;;;20.43;68.61;99141.39;1753095;81;21005;-66
2022/06/09 04:29:11;;;;;;;11.70;2.90;;;;;;;20.55;67.45;99136.59;1755462;81;21549;-67
2022/06/09 04:31:39;;;;;;;3.85;2.30;;;;;;;20.67;66.25;99137.62;1752793;81;21025;-68
2022/06/09 04:34:05;;;;;;;3.02;2.30;;;;;;;20.79;64.60;99139.81;1754687;81;21005;-66
2022/06/09 04:36:32;;;;;;;5.70;2.35;;;;;;;20.93;63.77;99130.66;1748660;81;21013;-67
2022/06/09 04:39:00;;;;;;;5.83;2.30;;;;;;;21.04;63.41;99132.03;1753828;80;20985;-69
2022/06/09 04:41:27;;;;;;;4.00;2.42;;;;;;;21.16;63.61;99140.03;1751633;81;21140;-66
2022/06/09 04:43:54;;;;;;;4.90;2.50;;;;;;;21.27;63.63;99140.61;1752353;80;21009;-68
2022/06/09 04:46:23;;;;;;;4.08;2.30;;;;;;;21.36;63.18;99135.38;1753504;80;21044;-67
2022/06/09 04:48:50;;;;;;;3.33;2.20;;;;;;;21.47;62.82;99137.36;1765054;80;21044;-69
2022/06/09 04:51:19;;;;;;;3.80;2.08;;;;;;;21.56;62.19;99136.34;1751657;81;20984;-70
2022/06/09 04:53:50;;;;;;;3.15;2.00;;;;;;;21.66;61.58;99137.51;1723019;81;21064;-65
2022/06/09 04:56:17;;;;;;;6.28;2.37;;;;;;;21.74;61.09;99138.27;1752424;81;21079;-66
2022/06/09 04:58:43;;;;;;;6.28;2.02;;;;;;;21.82;60.77;99134.26;1752673;81;21028;-66
2022/06/09 05:01:27;;;;;;;3.30;2.00;;;;;;;21.92;60.33;99138.84;1747029;81;20997;-67
2022/06/09 05:03:56;;;;;;;4.17;2.02;;;;;;;22.00;59.68;99139.81;1746692;81;21577;-66
2022/06/09 05:06:25;;;;;;;5.15;1.82;;;;;;;22.09;59.70;99137.94;1748688;81;21147;-65
2022/06/09 05:08:53;;;;;;;3.72;2.12;;;;;;;22.18;58.77;99135.31;1749448;81;21032;-66
2022/06/09 05:11:23;;;;;;;8.30;2.50;;;;;;;22.26;57.48;99134.06;1733656;80;21513;-66
2022/06/09 05:13:52;;;;;;;7.47;1.77;;;;;;;22.35;57.24;99140.00;1748873;80;21508;-67
2022/06/09 05:16:21;;;;;;;3.22;1.85;;;;;;;22.44;54.94;99136.74;1740198;81;21497;-66
2022/06/09 05:18:49;;;;;;;11.43;1.80;;;;;;;22.59;55.28;99136.03;1714855;81;21953;-66
2022/06/09 05:21:17;;;;;;;2.42;1.40;;;;;;;22.70;54.15;99137.99;1710389;83;21059;-67
2022/06/09 05:23:45;;;;;;;7.87;1.27;;;;;;;22.78;52.35;99136.72;1710252;82;21810;-66
2022/06/09 05:26:16;;;;;;;5.60;1.30;;;;;;;22.90;51.88;99147.25;1712925;82;21093;-66
2022/06/09 05:28:42;;;;;;;2.85;1.40;;;;;;;22.98;51.96;99141.77;1689437;82;21482;-66
2022/06/09 05:31:09;;;;;;;3.00;1.40;;;;;;;23.07;51.34;99144.09;1708580;83;21642;-69
2022/06/09 05:33:37;;;;;;;3.30;1.12;;;;;;;23.15;49.29;99144.22;1714266;82;21016;-66
2022/06/09 05:36:05;;;;;;;3.17;1.50;;;;;;;23.23;49.59;99144.34;1717477;82;21052;-66
2022/06/09 05:46:49;;;;;;;5.08;1.35;;;;;;;23.56;46.73;99153.09;1715983;82;21040;-70
2022/06/09 05:49:19;;;;;;;5.75;1.35;;;;;;;23.65;46.67;99155.38;1683004;85;21078;-68
2022/06/09 05:51:51;;;;;;;2.17;1.00;;;;;;;23.72;46.55;99151.09;1716495;83;22072;-67
2022/06/09 05:54:19;;;;;;;3.02;1.40;;;;;;;23.80;46.37;99151.19;1713134;83;21052;-68
2022/06/09 05:56:46;;;;;;;6.87;1.27;;;;;;;23.89;44.80;99149.88;1702127;83;21262;-67
2022/06/09 05:59:13;;;;;;;5.45;1.47;;;;;;;23.98;44.38;99150.78;1700520;83;21113;-68
2022/06/09 06:01:40;;;;;;;3.87;1.20;;;;;;;24.04;44.61;99151.30;1701230;82;21047;-66
2022/06/09 06:04:09;;;;;;;7.60;1.50;;;;;;;24.12;44.36;99151.98;1703574;82;21047;-69
2022/06/09 06:06:36;;;;;;;5.72;1.45;;;;;;;24.21;44.45;99150.09;1702195;83;21101;-66
2022/06/09 06:09:16;;;;;;;4.40;1.35;;;;;;;24.28;45.05;99156.23;1710455;83;21807;-65
2022/06/09 06:11:44;;;;;;;7.15;1.40;;;;;;;24.36;44.08;99152.09;1710748;82;21024;-68
2022/06/09 06:14:11;;;;;;;2.17;0.98;;;;;;;24.44;43.88;99157.02;1718372;82;21111;-68
2022/06/09 06:16:38;;;;;;;6.28;1.67;;;;;;;24.50;43.20;99154.51;1714224;83;21095;-66
2022/06/09 06:19:08;;;;;;;3.40;1.57;;;;;;;24.59;42.73;99161.02;1739887;81;21048;-68
2022/06/09 06:21:36;;;;;;;3.25;1.32;;;;;;;24.65;42.33;99162.92;1747720;80;21259;-66
2022/06/09 06:24:07;;;;;;;2.45;1.27;;;;;;;24.72;42.79;99158.42;1751562;80;21056;-66
2022/06/09 06:26:35;;;;;;;2.42;1.30;;;;;;;24.79;43.61;99159.09;1749143;80;21028;-66
2022/06/09 06:29:01;;;;;;;10.30;1.25;;;;;;;24.87;42.67;99158.35;1746427;81;21024;-66
2022/06/09 06:31:31;;;;;;;1.90;1.27;;;;;;;24.95;42.44;99157.67;1747208;81;21052;-66
2022/06/09 06:33:59;;;;;;;2.08;1.30;;;;;;;25.03;42.38;99145.05;1745184;81;21503;-65
2022/06/09 06:36:27;;;;;;;6.53;1.07;;;;;;;25.12;41.59;99151.55;1745029;81;21020;-66
2022/06/09 06:38:53;;;;;;;2.27;1.10;;;;;;;25.20;41.84;99153.61;1743563;81;20997;-67
2022/06/09 06:41:20;;;;;;;1.47;1.00;;;;;;;25.28;41.25;99159.30;1741628;81;21052;-68
2022/06/09 06:43:48;;;;;;;6.53;1.57;;;;;;;25.33;39.94;99159.44;1746363;80;21104;-66
2022/06/09 06:46:16;;;;;;;2.02;1.30;;;;;;;25.36;40.30;99152.93;1739802;80;21687;-66
2022/06/09 06:48:42;;;;;;;4.03;1.32;;;;;;;25.40;40.07;99150.05;1740046;81;21067;-65
2022/06/09 06:51:09;;;;;;;2.10;1.27;;;;;;;25.46;40.39;99149.72;1743676;81;21033;-67
2022/06/09 06:53:35;;;;;;;2.00;1.25;;;;;;;25.52;40.53;99152.84;1750478;81;21128;-68
2022/06/09 06:56:04;;;;;;;6.25;1.27;;;;;;;25.58;40.63;99153.13;1747040;80;21083;-67
2022/06/09 06:58:32;;;;;;;3.22;1.12;;;;;;;25.64;40.56;99151.44;1746722;81;21513;-67
2022/06/09 07:01:05;;;;;;;5.37;0.88;;;;;;;25.69;40.03;99149.49;1749334;80;21638;-70
2022/06/09 07:03:31;;;;;;;2.90;1.12;;;;;;;25.76;40.30;99155.00;1748054;80;21011;-69
2022/06/09 07:06:00;;;;;;;8.20;1.30;;;;;;;25.84;41.25;99153.45;1745102;81;21052;-69
2022/06/09 07:08:27;;;;;;;4.03;1.40;;;;;;;25.90;40.55;99148.88;1744712;80;21037;-70
2022/06/09 07:10:56;;;;;;;4.60;1.70;;;;;;;25.97;40.61;99147.93;1750916;80;21558;-67
2022/06/09 07:13:23;;;;;;;2.65;1.20;;;;;;;26.05;40.79;99155.64;1740051;80;21011;-66
2022/06/09 07:15:50;;;;;;;5.37;1.30;;;;;;;26.12;40.85;99154.86;1740962;81;21030;-67
2022/06/09 07:18:18;;;;;;;3.17;1.47;;;;;;;26.22;40.67;99156.48;1752176;79;21551;-68
2022/06/09 07:20:46;;;;;;;7.17;1.25;;;;;;;26.30;40.80;99159.33;1760799;80;21586;-70
2022/06/09 07:23:12;;;;;;;1.55;1.20;;;;;;;26.39;39.86;99159.37;1764690;80;21595;-69
2022/06/09 07:25:38;;;;;;;2.12;1.05;;;;;;;26.47;39.95;99158.77;1764318;80;21024;-68
2022/06/09 07:28:06;;;;;;;2.45;1.45;;;;;;;26.55;40.04;99153.73;1765322;80;21508;-67
2022/06/09 07:30:33;;;;;;;5.60;1.20;;;;;;;26.63;39.99;99157.17;1757080;80;21056;-68
2022/06/09 07:33:00;;;;;;;9.15;1.32;;;;;;;26.70;40.17;99154.83;1760210;80;20977;-68
2022/06/09 07:35:29;;;;;;;11.80;1.65;;;;;;;26.77;40.41;99155.27;1767203;80;21250;-69
2022/06/09 07:38:00;;;;;;;2.17;1.15;;;;;;;26.82;39.67;99160.36;1765837;80;21020;-68
2022/06/09 07:40:26;;;;;;;3.35;0.93;;;;;;;26.91;40.02;99159.74;1766289;80;21484;-68
2022/06/09 07:42:54;;;;;;;4.37;1.72;;;;;;;26.96;38.03;99163.45;1764348;80;21067;-68
2022/06/09 07:45:21;;;;;;;3.42;1.10;;;;;;;26.97;37.98;99163.01;1757002;80;21021;-68
2022/06/09 07:47:47;;;;;;;2.40;1.42;;;;;;;27.01;37.70;99167.16;1761871;80;21462;-69
2022/06/09 07:50:14;;;;;;;9.88;1.52;;;;;;;27.06;37.68;99175.75;1765616;80;21013;-68
2022/06/09 07:52:41;;;;;;;3.33;1.50;;;;;;;27.13;37.95;99174.16;1762921;80;21536;-68
2022/06/09 07:55:08;;;;;;;5.45;1.65;;;;;;;27.20;37.89;99168.33;1755851;80;21003;-70
2022/06/09 07:57:35;;;;;;;1.57;1.17;;;;;;;27.27;38.77;99165.13;1757963;80;20988;-67
2022/06/09 08:00:05;;;;;;;3.92;1.07;;;;;;;27.34;39.16;99160.70;1760340;80;21751;-69
2022/06/09 08:02:34;;;;;;;1.42;1.00;;;;;;;27.41;38.38;99166.17;1762784;80;21039;-69
2022/06/09 08:05:01;;;;;;;2.20;1.05;;;;;;;27.50;37.32;99160.49;1758657;80;21028;-69
2022/06/09 08:07:28;;;;;;;1.90;0.80;;;;;;;27.58;37.78;99161.88;1759326;80;21035;-67
2022/06/09 08:09:56;;;;;;;3.83;1.12;;;;;;;27.67;37.79;99167.67;1755241;80;21749;-69
2022/06/09 08:12:26;;;;;;;2.80;1.10;;;;;;;27.75;37.78;99167.50;1765804;80;21139;-69
2022/06/09 08:14:52;;;;;;;4.25;1.30;;;;;;;27.82;37.62;99161.65;1759230;80;21397;-67
2022/06/09 08:17:26;;;;;;;1.98;1.10;;;;;;;27.87;37.50;99164.54;1762743;80;21000;-81
2022/06/09 08:19:54;;;;;;;3.22;0.98;;;;;;;27.89;36.60;99168.52;1742014;80;21359;-67
2022/06/09 08:22:21;;;;;;;1.50;1.17;;;;;;;27.93;36.12;99169.81;1738254;81;21087;-70
2022/06/09 08:24:48;;;;;;;2.42;1.52;;;;;;;27.91;35.89;99172.31;1742176;81;21848;-68
2022/06/09 08:27:15;;;;;;;2.98;1.05;;;;;;;27.87;35.54;99167.37;1739985;81;21004;-72
2022/06/09 08:29:43;;;;;;;5.30;1.70;;;;;;;27.79;35.98;99166.80;1726425;81;21009;-69
2022/06/09 08:32:11;;;;;;;2.67;1.20;;;;;;;27.76;37.68;99170.49;1741950;81;21576;-70
2022/06/09 08:34:38;;;;;;;5.65;1.20;;;;;;;27.73;37.75;99167.15;1739383;81;21048;-68
2022/06/09 08:37:05;;;;;;;4.67;1.10;;;;;;;27.78;36.61;99160.95;1750985;81;21045;-71
2022/06/09 08:39:32;;;;;;;3.62;0.93;;;;;;;27.91;36.37;99167.43;1746963;81;21505;-70
2022/06/09 08:42:21;;;;;;;6.50;0.93;;;;;;;28.04;35.69;99166.06;1750525;81;21040;-67
2022/06/09 08:45:02;;;;;;;5.80;1.07;;;;;;;28.21;35.94;99163.13;1744552;81;21423;-69
2022/06/09 08:47:40;;;;;;;1.20;1.00;;;;;;;28.39;35.16;99169.69;1747065;80;20988;-69
2022/06/09 08:50:29;;;;;;;2.08;1.17;;;;;;;28.54;35.44;99160.75;1744572;81;21150;-66
2022/06/09 08:53:10;;;;;;;1.07;0.95;;;;;;;28.65;34.70;99158.36;1751256;80;21457;-66
2022/06/09 08:55:52;;;;;;;7.78;1.30;;;;;;;28.77;34.60;99158.79;1749689;80;21600;-67
2022/06/09 08:58:41;;;;;;;6.08;0.90;;;;;;;28.85;33.97;99158.72;1725525;81;21056;-67
2022/06/09 09:01:31;;;;;;;1.42;1.15;;;;;;;28.97;33.66;99152.09;1746094;81;21513;-66
2022/06/09 09:04:03;;;;;;;10.58;1.05;;;;;;;29.08;34.16;99152.53;1728165;81;21224;-64
2022/06/09 09:06:48;;;;;;;2.07;1.13;;;;;;;29.20;33.35;99151.53;1746553;81;21001;-63
2022/06/09 09:09:24;;;;;;;1.37;0.95;;;;;;;29.29;31.78;99155.87;1745835;80;21020;-64
2022/06/09 09:12:18;;;;;;;0.70;0.70;;;;;;;29.36;31.42;99158.44;1748660;80;21020;-64
2022/06/09 09:15:18;;;;;;;1.90;1.00;;;;;;;29.45;31.39;99151.26;1746252;81;21032;-64
2022/06/09 09:18:10;;;;;;;1.90;1.20;;;;;;;29.51;30.96;99146.59;1742820;81;21140;-65
2022/06/09 09:21:17;;;;;;;3.03;0.83;;;;;;;29.49;31.35;99152.73;1743083;81;21032;-65
2022/06/09 09:24:01;;;;;;;7.90;1.40;;;;;;;29.52;31.55;99146.75;1747237;81;21104;-65
2022/06/09 09:26:40;;;;;;;2.77;0.98;;;;;;;29.64;32.64;99151.61;1738521;81;21627;-65
2022/06/09 09:29:16;;;;;;;1.77;1.10;;;;;;;29.71;31.88;99144.08;1748511;81;20985;-66
2022/06/09 09:32:07;;;;;;;6.67;1.70;;;;;;;29.74;31.52;99138.89;1742088;81;21110;-66
2022/06/09 09:34:45;;;;;;;15.90;3.20;;;;;;;29.77;32.13;99140.80;1746296;81;21446;-66
2022/06/09 09:37:28;;;;;;;1.98;1.30;;;;;;;29.87;31.60;99146.70;1744846;81;21013;-66
2022/06/09 09:40:06;;;;;;;2.65;1.10;;;;;;;29.97;31.21;99150.41;1747117;81;21031;-66
2022/06/09 09:42:34;;;;;;;28.52;2.15;;;;;;;30.04;30.95;99142.25;1754977;81;21021;-65
2022/06/09 09:45:15;;;;;;;5.03;1.42;;;;;;;30.12;32.01;99137.87;1754762;80;21083;-66
2022/06/09 09:47:57;;;;;;;2.00;1.37;;;;;;;30.20;32.76;99131.89;1748985;81;20985;-67
2022/06/09 09:50:38;;;;;;;22.70;2.12;;;;;;;30.31;32.32;99128.05;1751229;81;20992;-66
2022/06/09 09:53:28;;;;;;;7.22;1.32;;;;;;;30.40;32.96;99132.95;1746765;80;21079;-68
2022/06/09 09:56:06;;;;;;;1.22;1.02;;;;;;;30.49;32.28;99126.52;1745992;80;21063;-66
2022/06/09 09:58:39;;;;;;;11.18;1.57;;;;;;;30.55;32.70;99128.12;1749701;81;21778;-69
2022/06/09 10:01:26;;;;;;;3.52;1.12;;;;;;;30.59;31.03;99126.70;1741479;81;21072;-66
2022/06/09 10:09:43;;;;;;;2.98;1.20;;;;;;;30.76;31.03;99129.92;1749394;81;21012;-64
2022/06/09 10:12:18;;;;;;;2.52;1.22;;;;;;;30.79;31.62;99128.97;1752586;81;21187;-65
2022/06/09 10:15:12;;;;;;;1.07;0.82;;;;;;;30.85;32.05;99126.48;1752139;80;21477;-64
2022/06/09 10:18:10;;;;;;;;;;;;;;;30.93;31.12;99130.45;1753847;81;21568;-64
2022/06/09 10:20:48;;;;;;;7.00;1.65;;;;;;;30.99;30.31;99125.72;1737137;81;20515;-65
2022/06/09 10:23:27;;;;;;;2.12;1.02;;;;;;;31.03;30.78;99124.14;1754656;80;21086;-66
2022/06/09 10:26:11;;;;;;;1.77;1.10;;;;;;;31.05;31.90;99133.00;1757531;81;21942;-66
2022/06/09 10:29:08;;;;;;;1.77;0.95;;;;;;;31.12;32.12;99129.05;1758452;81;21531;-65
2022/06/09 10:31:53;;;;;;;4.72;1.30;;;;;;;31.16;30.53;99120.52;1756405;81;21238;-66
2022/06/09 10:34:38;;;;;;;2.37;1.32;;;;;;;31.15;31.13;99122.41;1752730;81;21066;-65
2022/06/09 10:37:15;;;;;;;4.92;1.30;;;;;;;31.15;30.98;99120.34;1759391;80;21003;-65
2022/06/09 10:39:58;;;;;;;1.90;1.00;;;;;;;31.18;30.50;99123.69;1760064;80;21034;-65
2022/06/09 10:42:47;;;;;;;1.65;1.10;;;;;;;31.22;30.00;99114.97;1757961;81;21030;-65
2022/06/09 10:45:25;;;;;;;4.90;1.30;;;;;;;31.24;30.06;99111.68;1758161;80;20996;-63
2022/06/09 10:57:46;;;;;;;20.35;2.17;;;;;;;31.22;30.69;99116.39;1752598;81;21054;-67
2022/06/09 11:00:21;;;;;;;4.55;1.40;;;;;;;31.26;30.66;99111.97;1749174;80;21043;-66
2022/06/09 11:02:54;;;;;;;4.55;1.10;;;;;;;31.25;31.11;99108.36;1749927;81;21047;-66
2022/06/09 11:05:53;;;;;;;1.30;1.05;;;;;;;31.27;32.10;99102.96;1756545;80;20995;-66
2022/06/09 11:08:29;;;;;;;2.50;1.12;;;;;;;31.27;31.64;99108.66;1757129;81;21351;-66
2022/06/09 11:11:07;;;;;;;5.47;1.00;;;;;;;31.27;30.88;99103.61;1751343;80;21023;-67
2022/06/09 11:14:04;;;;;;;3.05;1.15;;;;;;;31.27;30.82;99100.12;1755377;81;20977;-67
2022/06/09 11:16:39;;;;;;;4.35;1.17;;;;;;;31.32;30.21;99105.17;1756407;81;21031;-68
2022/06/09 11:19:20;;;;;;;3.90;1.25;;;;;;;31.39;30.08;99100.45;1755790;80;20987;-68
2022/06/09 11:21:55;;;;;;;5.40;1.45;;;;;;;31.44;29.75;99097.77;1765999;80;21110;-67
2022/06/09 11:24:34;;;;;;;1.95;1.20;;;;;;;31.51;30.16;99102.34;1769798;80;21499;-68
2022/06/09 11:27:28;;;;;;;4.58;1.22;;;;;;;31.57;30.25;99100.45;1764526;79;21051;-68
2022/06/09 11:30:30;;;;;;;2.27;1.30;;;;;;;31.64;30.16;99101.38;1766520;80;21629;-67
2022/06/09 11:33:25;;;;;;;8.23;1.57;;;;;;;31.74;29.85;99100.09;1770612;80;21000;-67
2022/06/09 11:35:58;;;;;;;2.90;1.27;;;;;;;31.87;29.52;99092.78;1765563;80;21095;-66
2022/06/09 11:38:36;;;;;;;4.37;1.37;;;;;;;31.99;29.56;99096.73;1778627;79;22021;-67
2022/06/09 11:41:26;;;;;;;2.70;1.20;;;;;;;32.04;28.86;99090.38;1768150;80;21507;-67
2022/06/09 11:44:19;;;;;;;1.20;1.07;;;;;;;32.07;30.50;99097.19;1764060;80;21520;-67
2022/06/09 11:46:49;;;;;;;4.47;1.37;;;;;;;32.11;30.99;99088.48;1771524;80;20993;-67
2022/06/09 11:49:37;;;;;;;4.35;1.07;;;;;;;32.02;30.54;99091.48;1779041;80;21498;-67
2022/06/09 11:52:08;;;;;;;12.78;2.10;;;;;;;31.91;30.21;99091.98;1773037;80;21090;-67
2022/06/09 11:55:06;;;;;;;3.92;1.85;;;;;;;31.70;30.12;99091.72;1772416;79;21020;-68
2022/06/09 11:57:46;;;;;;;4.50;1.17;;;;;;;31.49;30.05;99087.83;1767524;80;21532;-67
2022/06/09 12:00:36;;;;;;;5.70;1.80;;;;;;;31.37;30.10;99095.86;1758387;80;21036;-67
2022/06/09 12:03:20;;;;;;;4.47;1.50;;;;;;;31.37;30.25;99091.59;1765229;80;21225;-67
2022/06/09 12:06:00;;;;;;;4.37;1.45;;;;;;;31.41;30.38;99092.23;1764025;80;21008;-68
2022/06/09 12:08:55;;;;;;;2.45;1.00;;;;;;;31.49;31.06;99097.78;1766115;80;21048;-67
2022/06/09 12:11:23;;;;;;;4.95;1.27;;;;;;;31.62;31.55;99095.38;1768645;80;21050;-68
2022/06/09 12:14:10;;;;;;;3.67;1.40;;;;;;;31.78;31.71;99095.02;1765167;80;21012;-66
2022/06/09 12:16:42;;;;;;;8.10;1.60;;;;;;;31.90;31.23;99096.74;1767303;80;21030;-67
2022/06/09 12:19:26;;;;;;;2.77;1.10;;;;;;;32.00;31.25;99096.10;1742217;80;21444;-66
2022/06/09 12:21:58;;;;;;;2.40;1.37;;;;;;;32.10;29.91;99094.00;1746305;81;21570;-67
2022/06/09 12:24:31;;;;;;;20.90;2.22;;;;;;;32.12;29.56;99092.89;1746753;80;21095;-68